sensor_id;sensor_type;location;lat;lon;timestamp;pressure;altitude;pressure_sealevel;temperature;humidity
54900;BME280;40801;41.924;25.562;2024-01-11T00:02:00;100754.56;;;-3.41;66.82
54900;BME280;40801;41.924;25.562;2024-01-11T00:04:25;100764.31;;;-3.41;67.09
54900;BME280;40801;41.924;25.562;2024-01-11T00:06:51;100762.22;;;-3.46;67.44
54900;BME280;40801;41.924;25.562;2024-01-11T00:09:16;100763.34;;;-3.49;67.26
54900;BME280;40801;41.924;25.562;2024-01-11T00:11:42;100759.66;;;-3.39;67.58
54900;BME280;40801;41.924;25.562;2024-01-11T00:14:07;100758.22;;;-3.42;66.58
54900;BME280;40801;41.924;25.562;2024-01-11T00:16:33;100758.22;;;-3.42;67.09
54900;BME280;40801;41.924;25.562;2024-01-11T00:18:59;100761.94;;;-3.36;66.55
54900;BME280;40801;41.924;25.562;2024-01-11T00:21:25;100761.38;;;-3.32;66.63
54900;BME280;40801;41.924;25.562;2024-01-11T00:23:50;100755.56;;;-3.27;66.47
54900;BME280;40801;41.924;25.562;2024-01-11T00:26:16;100740.75;;;-3.28;66.47
54900;BME280;40801;41.924;25.562;2024-01-11T00:28:41;100737.28;;;-3.29;66.91
54900;BME280;40801;41.924;25.562;2024-01-11T00:31:06;100731.75;;;-3.34;67.22
54900;BME280;40801;41.924;25.562;2024-01-11T00:33:32;100732.66;;;-3.41;67.33
54900;BME280;40801;41.924;25.562;2024-01-11T00:35:58;100725.00;;;-3.51;67.58
54900;BME280;40801;41.924;25.562;2024-01-11T00:38:23;100728.44;;;-3.51;67.63
54900;BME280;40801;41.924;25.562;2024-01-11T00:40:49;100724.16;;;-3.52;67.65
54900;BME280;40801;41.924;25.562;2024-01-11T00:43:14;100720.97;;;-3.62;67.50
54900;BME280;40801;41.924;25.562;2024-01-11T00:45:40;100719.88;;;-3.67;67.52
54900;BME280;40801;41.924;25.562;2024-01-11T00:48:05;100712.88;;;-3.75;67.74
54900;BME280;40801;41.924;25.562;2024-01-11T00:50:31;100718.09;;;-3.90;68.30
54900;BME280;40801;41.924;25.562;2024-01-11T00:52:57;100715.28;;;-3.88;67.80
54900;BME280;40801;41.924;25.562;2024-01-11T00:55:22;100721.63;;;-3.97;68.14
54900;BME280;40801;41.924;25.562;2024-01-11T00:57:49;100712.09;;;-3.98;68.30
54900;BME280;40801;41.924;25.562;2024-01-11T01:00:15;100715.25;;;-4.03;68.31
54900;BME280;40801;41.924;25.562;2024-01-11T01:02:41;100716.06;;;-4.02;68.48
54900;BME280;40801;41.924;25.562;2024-01-11T01:05:06;100713.44;;;-4.02;68.64
54900;BME280;40801;41.924;25.562;2024-01-11T01:07:32;100707.41;;;-4.11;68.79
54900;BME280;40801;41.924;25.562;2024-01-11T01:09:57;100703.41;;;-4.07;68.45
54900;BME280;40801;41.924;25.562;2024-01-11T01:12:23;100703.38;;;-3.99;68.79
54900;BME280;40801;41.924;25.562;2024-01-11T01:14:53;100694.28;;;-3.96;69.01
54900;BME280;40801;41.924;25.562;2024-01-11T01:17:18;100703.00;;;-3.96;68.78
54900;BME280;40801;41.924;25.562;2024-01-11T01:19:44;100695.00;;;-4.02;68.65
54900;BME280;40801;41.924;25.562;2024-01-11T01:22:09;100686.09;;;-4.01;68.44
54900;BME280;40801;41.924;25.562;2024-01-11T01:24:35;100677.03;;;-3.99;68.15
54900;BME280;40801;41.924;25.562;2024-01-11T01:27:00;100678.84;;;-3.99;68.47
54900;BME280;40801;41.924;25.562;2024-01-11T01:29:26;100676.94;;;-3.91;68.46
54900;BME280;40801;41.924;25.562;2024-01-11T01:31:51;100671.50;;;-3.89;68.11
54900;BME280;40801;41.924;25.562;2024-01-11T01:34:17;100666.78;;;-3.79;67.82
54900;BME280;40801;41.924;25.562;2024-01-11T01:36:42;100664.63;;;-3.76;67.13
54900;BME280;40801;41.924;25.562;2024-01-11T01:39:08;100655.03;;;-3.77;67.59
54900;BME280;40801;41.924;25.562;2024-01-11T01:41:33;100648.31;;;-3.79;67.57
54900;BME280;40801;41.924;25.562;2024-01-11T01:43:59;100656.72;;;-3.76;67.40
54900;BME280;40801;41.924;25.562;2024-01-11T01:46:24;100644.06;;;-3.80;68.17
54900;BME280;40801;41.924;25.562;2024-01-11T01:48:56;100651.69;;;-3.85;68.19
54900;BME280;40801;41.924;25.562;2024-01-11T01:51:24;100644.16;;;-3.88;68.33
54900;BME280;40801;41.924;25.562;2024-01-11T01:53:52;100645.31;;;-3.91;68.47
54900;BME280;40801;41.924;25.562;2024-01-11T01:56:19;100642.59;;;-3.97;68.53
54900;BME280;40801;41.924;25.562;2024-01-11T01:58:45;100640.50;;;-4.02;68.92
54900;BME280;40801;41.924;25.562;2024-01-11T02:01:12;100649.59;;;-4.04;68.54
54900;BME280;40801;41.924;25.562;2024-01-11T02:03:38;100642.19;;;-4.09;68.61
54900;BME280;40801;41.924;25.562;2024-01-11T02:06:04;100632.66;;;-4.10;68.68
54900;BME280;40801;41.924;25.562;2024-01-11T02:08:31;100625.47;;;-4.16;68.39
54900;BME280;40801;41.924;25.562;2024-01-11T02:10:59;100627.28;;;-4.17;68.39
54900;BME280;40801;41.924;25.562;2024-01-11T02:13:25;100621.19;;;-4.17;68.36
54900;BME280;40801;41.924;25.562;2024-01-11T02:15:50;100610.66;;;-4.17;68.14
54900;BME280;40801;41.924;25.562;2024-01-11T02:18:16;100609.66;;;-4.16;68.46
54900;BME280;40801;41.924;25.562;2024-01-11T02:20:41;100601.66;;;-4.23;68.41
54900;BME280;40801;41.924;25.562;2024-01-11T02:23:09;100600.03;;;-4.24;69.16
54900;BME280;40801;41.924;25.562;2024-01-11T02:25:37;100598.03;;;-4.22;68.84
54900;BME280;40801;41.924;25.562;2024-01-11T02:28:03;100596.41;;;-4.23;68.75
54900;BME280;40801;41.924;25.562;2024-01-11T02:30:28;100600.03;;;-4.24;68.63
54900;BME280;40801;41.924;25.562;2024-01-11T02:32:54;100593.94;;;-4.24;68.62
54900;BME280;40801;41.924;25.562;2024-01-11T02:35:19;100595.47;;;-4.30;68.71
54900;BME280;40801;41.924;25.562;2024-01-11T02:37:46;100592.22;;;-4.32;68.67
54900;BME280;40801;41.924;25.562;2024-01-11T02:40:13;100587.94;;;-4.33;68.73
54900;BME280;40801;41.924;25.562;2024-01-11T02:42:38;100591.44;;;-4.41;68.46
54900;BME280;40801;41.924;25.562;2024-01-11T02:45:04;100591.16;;;-4.46;68.65
54900;BME280;40801;41.924;25.562;2024-01-11T02:47:30;100593.69;;;-4.52;68.58
54900;BME280;40801;41.924;25.562;2024-01-11T02:49:55;100609.03;;;-4.56;68.66
54900;BME280;40801;41.924;25.562;2024-01-11T02:52:22;100603.75;;;-4.56;68.73
54900;BME280;40801;41.924;25.562;2024-01-11T02:54:48;100601.59;;;-4.52;68.39
54900;BME280;40801;41.924;25.562;2024-01-11T02:57:13;100587.31;;;-4.58;69.10
54900;BME280;40801;41.924;25.562;2024-01-11T02:59:39;100590.69;;;-4.49;69.16
54900;BME280;40801;41.924;25.562;2024-01-11T03:02:05;100593.16;;;-4.48;68.86
54900;BME280;40801;41.924;25.562;2024-01-11T03:04:31;100597.66;;;-4.56;69.40
54900;BME280;40801;41.924;25.562;2024-01-11T03:06:56;100595.91;;;-4.64;69.48
54900;BME280;40801;41.924;25.562;2024-01-11T03:09:22;100606.91;;;-4.60;69.01
54900;BME280;40801;41.924;25.562;2024-01-11T03:11:47;100599.31;;;-4.55;68.86
54900;BME280;40801;41.924;25.562;2024-01-11T03:14:12;100601.59;;;-4.52;69.57
54900;BME280;40801;41.924;25.562;2024-01-11T03:16:38;100601.06;;;-4.48;69.44
54900;BME280;40801;41.924;25.562;2024-01-11T03:19:05;100601.50;;;-4.44;69.48
54900;BME280;40801;41.924;25.562;2024-01-11T03:21:30;100602.88;;;-4.48;69.36
54900;BME280;40801;41.924;25.562;2024-01-11T03:23:56;100610.75;;;-4.48;69.70
54900;BME280;40801;41.924;25.562;2024-01-11T03:26:22;100602.69;;;-4.47;69.69
54900;BME280;40801;41.924;25.562;2024-01-11T03:28:47;100604.31;;;-4.46;69.79
54900;BME280;40801;41.924;25.562;2024-01-11T03:31:13;100601.88;;;-4.47;69.23
54900;BME280;40801;41.924;25.562;2024-01-11T03:33:39;100600.41;;;-4.50;69.32
54900;BME280;40801;41.924;25.562;2024-01-11T03:36:08;100596.31;;;-4.52;69.50
54900;BME280;40801;41.924;25.562;2024-01-11T03:38:34;100592.75;;;-4.59;70.19
54900;BME280;40801;41.924;25.562;2024-01-11T03:40:59;100589.19;;;-4.67;70.06
54900;BME280;40801;41.924;25.562;2024-01-11T03:43:25;100588.34;;;-4.67;70.19
54900;BME280;40801;41.924;25.562;2024-01-11T03:45:50;100590.78;;;-4.57;69.74
54900;BME280;40801;41.924;25.562;2024-01-11T03:48:16;100585.50;;;-4.57;69.95
54900;BME280;40801;41.924;25.562;2024-01-11T03:50:41;100580.41;;;-4.59;70.44
54900;BME280;40801;41.924;25.562;2024-01-11T03:53:06;100578.25;;;-4.55;69.95
54900;BME280;40801;41.924;25.562;2024-01-11T03:55:33;100573.97;;;-4.56;70.10
54900;BME280;40801;41.924;25.562;2024-01-11T03:57:58;100586.03;;;-4.62;70.62
54900;BME280;40801;41.924;25.562;2024-01-11T04:00:24;100573.34;;;-4.58;70.03
54900;BME280;40801;41.924;25.562;2024-01-11T04:02:49;100575.78;;;-4.57;70.39
54900;BME280;40801;41.924;25.562;2024-01-11T04:05:14;100579.25;;;-4.56;70.26
54900;BME280;40801;41.924;25.562;2024-01-11T04:07:41;100576.34;;;-4.61;70.34
54900;BME280;40801;41.924;25.562;2024-01-11T04:10:06;100568.75;;;-4.64;70.55
54900;BME280;40801;41.924;25.562;2024-01-11T04:12:33;100569.66;;;-4.72;70.54
54900;BME280;40801;41.924;25.562;2024-01-11T04:14:59;100572.63;;;-4.75;70.54
54900;BME280;40801;41.924;25.562;2024-01-11T04:17:24;100564.63;;;-4.82;70.37
54900;BME280;40801;41.924;25.562;2024-01-11T04:19:49;100563.88;;;-4.90;70.62
54900;BME280;40801;41.924;25.562;2024-01-11T04:22:15;100572.63;;;-4.98;70.52
54900;BME280;40801;41.924;25.562;2024-01-11T04:24:42;100573.44;;;-4.97;70.91
54900;BME280;40801;41.924;25.562;2024-01-11T04:27:07;100572.44;;;-4.96;70.77
54900;BME280;40801;41.924;25.562;2024-01-11T04:29:33;100564.72;;;-4.98;70.90
54900;BME280;40801;41.924;25.562;2024-01-11T04:31:58;100567.06;;;-5.03;70.83
54900;BME280;40801;41.924;25.562;2024-01-11T04:34:24;100566.59;;;-5.07;70.62
54900;BME280;40801;41.924;25.562;2024-01-11T04:36:49;100574.50;;;-5.07;70.75
54900;BME280;40801;41.924;25.562;2024-01-11T04:39:15;100569.75;;;-5.11;70.61
54900;BME280;40801;41.924;25.562;2024-01-11T04:41:40;100570.94;;;-5.14;70.38
54900;BME280;40801;41.924;25.562;2024-01-11T04:44:06;100566.50;;;-5.21;70.74
54900;BME280;40801;41.924;25.562;2024-01-11T04:46:31;100566.38;;;-5.20;70.90
54900;BME280;40801;41.924;25.562;2024-01-11T04:48:56;100571.63;;;-5.20;71.09
54900;BME280;40801;41.924;25.562;2024-01-11T04:51:22;100578.69;;;-5.20;71.19
54900;BME280;40801;41.924;25.562;2024-01-11T04:53:47;100576.91;;;-5.28;71.61
54900;BME280;40801;41.924;25.562;2024-01-11T04:56:16;100571.69;;;-5.36;71.22
54900;BME280;40801;41.924;25.562;2024-01-11T04:58:44;100571.13;;;-5.23;70.32
54900;BME280;40801;41.924;25.562;2024-01-11T05:01:13;100576.13;;;-5.06;69.55
54900;BME280;40801;41.924;25.562;2024-01-11T05:03:39;100575.13;;;-5.05;69.83
54900;BME280;40801;41.924;25.562;2024-01-11T05:06:04;100572.88;;;-5.08;70.43
54900;BME280;40801;41.924;25.562;2024-01-11T05:08:30;100563.50;;;-5.10;70.83
54900;BME280;40801;41.924;25.562;2024-01-11T05:10:55;100562.22;;;-5.14;71.00
54900;BME280;40801;41.924;25.562;2024-01-11T05:13:21;100560.88;;;-5.10;70.91
54900;BME280;40801;41.924;25.562;2024-01-11T05:15:46;100556.09;;;-5.07;70.36
54900;BME280;40801;41.924;25.562;2024-01-11T05:18:12;100555.16;;;-5.14;71.11
54900;BME280;40801;41.924;25.562;2024-01-11T05:20:38;100543.81;;;-5.14;71.21
54900;BME280;40801;41.924;25.562;2024-01-11T05:23:04;100559.94;;;-5.17;71.33
54900;BME280;40801;41.924;25.562;2024-01-11T05:25:30;100559.78;;;-5.16;71.30
54900;BME280;40801;41.924;25.562;2024-01-11T05:28:00;100550.88;;;-5.15;71.05
54900;BME280;40801;41.924;25.562;2024-01-11T05:30:25;100552.69;;;-5.15;71.19
54900;BME280;40801;41.924;25.562;2024-01-11T05:32:50;100541.38;;;-5.16;70.94
54900;BME280;40801;41.924;25.562;2024-01-11T05:35:16;100545.63;;;-5.15;71.07
54900;BME280;40801;41.924;25.562;2024-01-11T05:37:41;100542.19;;;-5.15;70.88
54900;BME280;40801;41.924;25.562;2024-01-11T05:40:07;100543.38;;;-5.26;71.24
54900;BME280;40801;41.924;25.562;2024-01-11T05:42:33;100540.41;;;-5.23;71.35
54900;BME280;40801;41.924;25.562;2024-01-11T05:44:58;100532.19;;;-5.20;71.20
54900;BME280;40801;41.924;25.562;2024-01-11T05:47:24;100537.75;;;-5.15;71.13
54900;BME280;40801;41.924;25.562;2024-01-11T05:49:49;100532.34;;;-5.21;71.00
54900;BME280;40801;41.924;25.562;2024-01-11T05:52:15;100531.38;;;-5.20;70.98
54900;BME280;40801;41.924;25.562;2024-01-11T05:54:40;100533.00;;;-5.19;70.95
54900;BME280;40801;41.924;25.562;2024-01-11T05:57:06;100529.56;;;-5.20;70.88
54900;BME280;40801;41.924;25.562;2024-01-11T05:59:32;100525.13;;;-5.19;70.71
54900;BME280;40801;41.924;25.562;2024-01-11T06:01:58;100520.00;;;-5.21;70.82
54900;BME280;40801;41.924;25.562;2024-01-11T06:04:26;100526.59;;;-5.17;71.04
54900;BME280;40801;41.924;25.562;2024-01-11T06:06:52;100522.50;;;-5.19;71.18
54900;BME280;40801;41.924;25.562;2024-01-11T06:09:17;100529.03;;;-5.15;71.27
54900;BME280;40801;41.924;25.562;2024-01-11T06:11:43;100527.22;;;-5.15;71.09
54900;BME280;40801;41.924;25.562;2024-01-11T06:14:08;100520.63;;;-5.11;70.89
54900;BME280;40801;41.924;25.562;2024-01-11T06:16:34;100522.66;;;-4.98;69.91
54900;BME280;40801;41.924;25.562;2024-01-11T06:18:59;100509.03;;;-5.02;70.22
54900;BME280;40801;41.924;25.562;2024-01-11T06:21:25;100520.66;;;-4.96;70.38
54900;BME280;40801;41.924;25.562;2024-01-11T06:23:50;100525.41;;;-4.91;70.33
54900;BME280;40801;41.924;25.562;2024-01-11T06:26:16;100522.25;;;-4.87;70.51
54900;BME280;40801;41.924;25.562;2024-01-11T06:28:41;100526.81;;;-4.81;70.01
54900;BME280;40801;41.924;25.562;2024-01-11T06:31:06;100527.09;;;-4.76;69.71
54900;BME280;40801;41.924;25.562;2024-01-11T06:33:32;100527.56;;;-4.72;69.97
54900;BME280;40801;41.924;25.562;2024-01-11T06:35:58;100527.31;;;-4.62;69.66
54900;BME280;40801;41.924;25.562;2024-01-11T06:38:23;100516.91;;;-4.56;69.20
54900;BME280;40801;41.924;25.562;2024-01-11T06:40:49;100520.34;;;-4.41;68.86
54900;BME280;40801;41.924;25.562;2024-01-11T06:43:15;100519.47;;;-4.33;69.19
54900;BME280;40801;41.924;25.562;2024-01-11T06:45:43;100518.41;;;-4.24;69.60
54900;BME280;40801;41.924;25.562;2024-01-11T06:48:08;100510.75;;;-4.19;68.95
54900;BME280;40801;41.924;25.562;2024-01-11T06:50:33;100520.38;;;-4.11;69.22
54900;BME280;40801;41.924;25.562;2024-01-11T06:52:59;100519.94;;;-4.00;68.81
54900;BME280;40801;41.924;25.562;2024-01-11T06:55:25;100523.50;;;-3.93;68.80
54900;BME280;40801;41.924;25.562;2024-01-11T06:57:50;100517.28;;;-3.85;68.93
54900;BME280;40801;41.924;25.562;2024-01-11T07:00:16;100515.28;;;-3.83;69.04
54900;BME280;40801;41.924;25.562;2024-01-11T07:02:41;100511.03;;;-3.69;68.87
54900;BME280;40801;41.924;25.562;2024-01-11T07:05:07;100513.25;;;-3.52;68.23
54900;BME280;40801;41.924;25.562;2024-01-11T07:07:33;100519.25;;;-3.43;68.64
54900;BME280;40801;41.924;25.562;2024-01-11T07:09:58;100511.41;;;-3.36;68.41
54900;BME280;40801;41.924;25.562;2024-01-11T07:12:24;100505.56;;;-3.32;69.27
54900;BME280;40801;41.924;25.562;2024-01-11T07:14:51;100515.44;;;-3.19;68.49
54900;BME280;40801;41.924;25.562;2024-01-11T07:17:17;100506.03;;;-3.07;67.85
54900;BME280;40801;41.924;25.562;2024-01-11T07:19:42;100495.16;;;-2.97;67.72
54900;BME280;40801;41.924;25.562;2024-01-11T07:22:08;100502.38;;;-2.85;67.58
54900;BME280;40801;41.924;25.562;2024-01-11T07:24:33;100501.63;;;-2.78;67.47
54900;BME280;40801;41.924;25.562;2024-01-11T07:27:06;100486.66;;;-2.71;67.11
54900;BME280;40801;41.924;25.562;2024-01-11T07:29:33;100481.69;;;-2.60;66.96
54900;BME280;40801;41.924;25.562;2024-01-11T07:31:59;100491.50;;;-2.47;66.98
54900;BME280;40801;41.924;25.562;2024-01-11T07:34:24;100495.44;;;-2.36;66.78
54900;BME280;40801;41.924;25.562;2024-01-11T07:36:50;100484.13;;;-2.30;66.80
54900;BME280;40801;41.924;25.562;2024-01-11T07:39:15;100482.75;;;-2.20;66.52
54900;BME280;40801;41.924;25.562;2024-01-11T07:41:41;100477.31;;;-2.11;66.28
54900;BME280;40801;41.924;25.562;2024-01-11T07:44:07;100472.84;;;-2.04;67.22
54900;BME280;40801;41.924;25.562;2024-01-11T07:46:32;100468.28;;;-1.82;67.32
54900;BME280;40801;41.924;25.562;2024-01-11T07:48:58;100463.78;;;-1.34;67.31
54900;BME280;40801;41.924;25.562;2024-01-11T07:51:24;100458.16;;;-0.78;66.95
54900;BME280;40801;41.924;25.562;2024-01-11T07:53:50;100457.09;;;-0.51;65.48
54900;BME280;40801;41.924;25.562;2024-01-11T07:56:15;100459.13;;;-0.46;64.25
54900;BME280;40801;41.924;25.562;2024-01-11T07:58:41;100454.41;;;-0.38;64.17
54900;BME280;40801;41.924;25.562;2024-01-11T08:01:07;100459.31;;;-0.35;63.83
54900;BME280;40801;41.924;25.562;2024-01-11T08:03:32;100454.22;;;-0.36;63.56
54900;BME280;40801;41.924;25.562;2024-01-11T08:06:00;100454.19;;;-0.29;63.65
54900;BME280;40801;41.924;25.562;2024-01-11T08:08:25;100452.56;;;-0.31;64.34
54900;BME280;40801;41.924;25.562;2024-01-11T08:10:51;100443.59;;;-0.29;65.01
54900;BME280;40801;41.924;25.562;2024-01-11T08:13:17;100437.47;;;0.28;65.70
54900;BME280;40801;41.924;25.562;2024-01-11T08:15:43;100442.69;;;1.11;65.73
54900;BME280;40801;41.924;25.562;2024-01-11T08:18:08;100435.81;;;2.08;64.90
54900;BME280;40801;41.924;25.562;2024-01-11T08:20:34;100434.00;;;3.22;64.64
54900;BME280;40801;41.924;25.562;2024-01-11T08:22:59;100432.25;;;4.26;63.03
54900;BME280;40801;41.924;25.562;2024-01-11T08:25:25;100426.91;;;5.00;59.59
54900;BME280;40801;41.924;25.562;2024-01-11T08:27:50;100422.75;;;6.19;58.86
54900;BME280;40801;41.924;25.562;2024-01-11T08:30:16;100414.22;;;7.03;55.80
54900;BME280;40801;41.924;25.562;2024-01-11T08:32:41;100409.75;;;8.08;54.55
54900;BME280;40801;41.924;25.562;2024-01-11T08:35:11;100402.47;;;9.02;50.91
54900;BME280;40801;41.924;25.562;2024-01-11T08:37:37;100399.88;;;9.82;52.35
54900;BME280;40801;41.924;25.562;2024-01-11T08:40:02;100396.91;;;10.53;48.26
54900;BME280;40801;41.924;25.562;2024-01-11T08:42:30;100396.44;;;10.36;44.84
54900;BME280;40801;41.924;25.562;2024-01-11T08:44:56;100392.47;;;10.72;43.98
54900;BME280;40801;41.924;25.562;2024-01-11T08:47:21;100391.00;;;11.19;42.88
54900;BME280;40801;41.924;25.562;2024-01-11T08:49:47;100385.53;;;11.29;41.21
54900;BME280;40801;41.924;25.562;2024-01-11T08:52:12;100385.59;;;12.38;40.04
54900;BME280;40801;41.924;25.562;2024-01-11T08:54:38;100374.59;;;12.54;39.02
54900;BME280;40801;41.924;25.562;2024-01-11T08:57:03;100371.41;;;12.09;37.79
54900;BME280;40801;41.924;25.562;2024-01-11T08:59:29;100369.66;;;10.54;37.52
54900;BME280;40801;41.924;25.562;2024-01-11T09:01:54;100364.19;;;10.15;38.28
54900;BME280;40801;41.924;25.562;2024-01-11T09:04:19;100356.97;;;10.89;39.18
54900;BME280;40801;41.924;25.562;2024-01-11T09:06:45;100347.78;;;11.96;38.54
54900;BME280;40801;41.924;25.562;2024-01-11T09:09:11;100333.13;;;12.91;36.54
54900;BME280;40801;41.924;25.562;2024-01-11T09:11:41;100343.59;;;13.11;35.68
54900;BME280;40801;41.924;25.562;2024-01-11T09:14:07;100335.31;;;13.21;35.76
54900;BME280;40801;41.924;25.562;2024-01-11T09:16:32;100338.25;;;13.80;35.23
54900;BME280;40801;41.924;25.562;2024-01-11T09:18:58;100324.78;;;14.02;34.47
54900;BME280;40801;41.924;25.562;2024-01-11T09:21:27;100327.63;;;14.47;34.43
54900;BME280;40801;41.924;25.562;2024-01-11T09:23:52;100315.94;;;14.91;33.87
54900;BME280;40801;41.924;25.562;2024-01-11T09:26:17;100308.75;;;15.26;32.76
54900;BME280;40801;41.924;25.562;2024-01-11T09:28:43;100308.09;;;14.09;32.46
54900;BME280;40801;41.924;25.562;2024-01-11T09:31:08;100302.28;;;15.44;31.68
54900;BME280;40801;41.924;25.562;2024-01-11T09:33:33;100300.34;;;15.36;31.77
54900;BME280;40801;41.924;25.562;2024-01-11T09:35:59;100299.56;;;15.05;32.42
54900;BME280;40801;41.924;25.562;2024-01-11T09:38:24;100292.09;;;14.57;31.69
54900;BME280;40801;41.924;25.562;2024-01-11T09:41:03;100281.53;;;15.09;30.69
54900;BME280;40801;41.924;25.562;2024-01-11T09:43:33;100290.91;;;15.34;30.69
54900;BME280;40801;41.924;25.562;2024-01-11T09:46:03;100275.06;;;15.67;30.55
54900;BME280;40801;41.924;25.562;2024-01-11T09:48:29;100268.91;;;15.13;30.72
54900;BME280;40801;41.924;25.562;2024-01-11T09:50:56;100257.34;;;16.04;29.94
54900;BME280;40801;41.924;25.562;2024-01-11T09:53:23;100242.88;;;16.64;28.89
54900;BME280;40801;41.924;25.562;2024-01-11T09:55:50;100241.19;;;16.25;29.26
54900;BME280;40801;41.924;25.562;2024-01-11T09:58:17;100237.28;;;16.60;29.18
54900;BME280;40801;41.924;25.562;2024-01-11T10:00:44;100233.19;;;17.30;28.84
54900;BME280;40801;41.924;25.562;2024-01-11T10:03:10;100231.53;;;17.76;28.18
54900;BME280;40801;41.924;25.562;2024-01-11T10:05:36;100223.28;;;18.06;27.67
54900;BME280;40801;41.924;25.562;2024-01-11T10:08:01;100218.91;;;17.33;27.60
54900;BME280;40801;41.924;25.562;2024-01-11T10:10:27;100215.16;;;17.17;28.04
54900;BME280;40801;41.924;25.562;2024-01-11T10:12:53;100208.28;;;18.12;27.65
54900;BME280;40801;41.924;25.562;2024-01-11T10:15:24;100205.25;;;17.72;25.98
54900;BME280;40801;41.924;25.562;2024-01-11T10:17:49;100203.63;;;17.91;28.06
54900;BME280;40801;41.924;25.562;2024-01-11T10:20:15;100203.38;;;18.71;27.22
54900;BME280;40801;41.924;25.562;2024-01-11T10:22:40;100203.88;;;18.98;26.01
54900;BME280;40801;41.924;25.562;2024-01-11T10:25:11;100192.59;;;19.11;25.74
54900;BME280;40801;41.924;25.562;2024-01-11T10:27:38;100197.69;;;18.76;25.99
54900;BME280;40801;41.924;25.562;2024-01-11T10:30:05;100182.22;;;18.47;26.79
54900;BME280;40801;41.924;25.562;2024-01-11T10:32:33;100185.09;;;18.51;26.55
54900;BME280;40801;41.924;25.562;2024-01-11T10:35:00;100183.22;;;17.98;27.55
54900;BME280;40801;41.924;25.562;2024-01-11T10:37:28;100173.47;;;17.17;27.05
54900;BME280;40801;41.924;25.562;2024-01-11T10:39:56;100179.75;;;17.68;27.18
54900;BME280;40801;41.924;25.562;2024-01-11T10:42:24;100162.75;;;18.04;26.39
54900;BME280;40801;41.924;25.562;2024-01-11T10:44:54;100161.94;;;18.24;25.25
54900;BME280;40801;41.924;25.562;2024-01-11T10:47:24;100152.97;;;18.48;25.13
54900;BME280;40801;41.924;25.562;2024-01-11T10:49:54;100145.09;;;19.04;24.38
54900;BME280;40801;41.924;25.562;2024-01-11T10:52:26;100146.59;;;19.13;22.74
54900;BME280;40801;41.924;25.562;2024-01-11T10:54:54;100137.75;;;19.32;24.12
54900;BME280;40801;41.924;25.562;2024-01-11T10:57:20;100136.78;;;20.49;22.81
54900;BME280;40801;41.924;25.562;2024-01-11T10:59:48;100130.38;;;21.08;21.72
54900;BME280;40801;41.924;25.562;2024-01-11T11:02:16;100122.84;;;20.54;21.24
54900;BME280;40801;41.924;25.562;2024-01-11T11:04:42;100118.31;;;20.61;22.02
54900;BME280;40801;41.924;25.562;2024-01-11T11:07:09;100105.03;;;20.79;21.82
54900;BME280;40801;41.924;25.562;2024-01-11T11:09:35;100115.50;;;20.14;21.65
54900;BME280;40801;41.924;25.562;2024-01-11T11:12:00;100110.72;;;20.11;22.07
54900;BME280;40801;41.924;25.562;2024-01-11T11:14:27;100110.56;;;19.24;21.78
54900;BME280;40801;41.924;25.562;2024-01-11T11:16:53;100101.75;;;19.83;21.72
54900;BME280;40801;41.924;25.562;2024-01-11T11:19:20;100096.81;;;20.79;21.18
54900;BME280;40801;41.924;25.562;2024-01-11T11:21:47;100098.94;;;19.95;21.55
54900;BME280;40801;41.924;25.562;2024-01-11T11:24:13;100089.81;;;20.34;22.10
54900;BME280;40801;41.924;25.562;2024-01-11T11:26:38;100081.34;;;20.71;21.68
54900;BME280;40801;41.924;25.562;2024-01-11T11:29:04;100077.84;;;21.06;21.53
54900;BME280;40801;41.924;25.562;2024-01-11T11:31:38;100070.31;;;21.02;20.16
54900;BME280;40801;41.924;25.562;2024-01-11T11:34:04;100065.25;;;20.38;21.88
54900;BME280;40801;41.924;25.562;2024-01-11T11:36:30;100064.38;;;20.50;21.99
54900;BME280;40801;41.924;25.562;2024-01-11T11:38:59;100049.84;;;21.51;20.53
54900;BME280;40801;41.924;25.562;2024-01-11T11:41:32;100047.09;;;22.12;20.60
54900;BME280;40801;41.924;25.562;2024-01-11T11:44:04;100038.06;;;22.12;18.78
54900;BME280;40801;41.924;25.562;2024-01-11T11:46:29;100044.66;;;21.46;20.91
54900;BME280;40801;41.924;25.562;2024-01-11T11:48:56;100042.63;;;21.43;21.06
54900;BME280;40801;41.924;25.562;2024-01-11T11:51:22;100030.88;;;21.84;20.34
54900;BME280;40801;41.924;25.562;2024-01-11T11:53:49;100023.16;;;22.13;19.28
54900;BME280;40801;41.924;25.562;2024-01-11T11:56:19;100020.94;;;22.45;16.92
54900;BME280;40801;41.924;25.562;2024-01-11T11:58:46;100020.44;;;22.62;17.97
54900;BME280;40801;41.924;25.562;2024-01-11T12:01:13;100012.09;;;23.11;18.07
54900;BME280;40801;41.924;25.562;2024-01-11T12:03:41;100009.06;;;22.64;17.54
54900;BME280;40801;41.924;25.562;2024-01-11T12:06:09;99998.53;;;22.69;17.41
54900;BME280;40801;41.924;25.562;2024-01-11T12:11:06;99987.97;;;22.45;18.24
54900;BME280;40801;41.924;25.562;2024-01-11T12:13:32;99993.81;;;22.43;17.88
54900;BME280;40801;41.924;25.562;2024-01-11T12:15:57;99989.38;;;22.35;18.06
54900;BME280;40801;41.924;25.562;2024-01-11T12:18:23;99987.25;;;22.51;17.94
54900;BME280;40801;41.924;25.562;2024-01-11T12:20:48;99981.75;;;23.04;17.47
54900;BME280;40801;41.924;25.562;2024-01-11T12:23:14;99977.19;;;22.59;17.18
54900;BME280;40801;41.924;25.562;2024-01-11T12:25:41;99970.47;;;22.30;18.21
54900;BME280;40801;41.924;25.562;2024-01-11T12:28:07;99966.91;;;22.82;17.74
54900;BME280;40801;41.924;25.562;2024-01-11T12:30:32;99957.94;;;22.85;18.08
54900;BME280;40801;41.924;25.562;2024-01-11T12:32:58;99958.75;;;22.60;17.97
54900;BME280;40801;41.924;25.562;2024-01-11T12:35:27;99951.16;;;22.53;18.38
54900;BME280;40801;41.924;25.562;2024-01-11T12:38:01;99944.19;;;22.06;18.75